sensor_id;sensor_type;location;lat;lon;timestamp;P1;durP1;ratioP1;P2;durP2;ratioP2
17953;SDS011;9102;53.548;9.926;2023-04-06T00:00:24;4.15;;;2.72;;
17953;SDS011;9102;53.548;9.926;2023-04-06T00:02:51;7.43;;;3.30;;
17953;SDS011;9102;53.548;9.926;2023-04-06T00:05:18;6.50;;;3.08;;
17953;SDS011;9102;53.548;9.926;2023-04-06T00:07:46;5.38;;;3.25;;
17953;SDS011;9102;53.548;9.926;2023-04-06T00:10:15;10.50;;;3.17;;
17953;SDS011;9102;53.548;9.926;2023-04-06T00:12:42;7.05;;;3.05;;
17953;SDS011;9102;53.548;9.926;2023-04-06T00:15:10;4.88;;;2.78;;
17953;SDS011;9102;53.548;9.926;2023-04-06T00:17:37;6.78;;;3.10;;
17953;SDS011;9102;53.548;9.926;2023-04-06T00:20:04;6.07;;;3.08;;
17953;SDS011;9102;53.548;9.926;2023-04-06T00:22:32;6.50;;;2.97;;
17953;SDS011;9102;53.548;9.926;2023-04-06T00:24:59;6.78;;;3.35;;
17953;SDS011;9102;53.548;9.926;2023-04-06T00:27:27;9.07;;;3.05;;
17953;SDS011;9102;53.548;9.926;2023-04-06T00:29:54;7.15;;;3.28;;
17953;SDS011;9102;53.548;9.926;2023-04-06T00:32:21;5.88;;;3.17;;
17953;SDS011;9102;53.548;9.926;2023-04-06T00:34:48;8.80;;;3.40;;
17953;SDS011;9102;53.548;9.926;2023-04-06T00:37:15;4.10;;;2.60;;
17953;SDS011;9102;53.548;9.926;2023-04-06T00:39:42;6.35;;;3.38;;
17953;SDS011;9102;53.548;9.926;2023-04-06T00:42:10;7.25;;;3.17;;
17953;SDS011;9102;53.548;9.926;2023-04-06T00:44:40;7.07;;;3.40;;
17953;SDS011;9102;53.548;9.926;2023-04-06T00:47:07;6.22;;;3.30;;
17953;SDS011;9102;53.548;9.926;2023-04-06T00:49:35;5.43;;;2.88;;
17953;SDS011;9102;53.548;9.926;2023-04-06T00:52:02;9.65;;;3.67;;
17953;SDS011;9102;53.548;9.926;2023-04-06T00:54:29;8.07;;;3.40;;
17953;SDS011;9102;53.548;9.926;2023-04-06T00:56:56;9.27;;;3.58;;
17953;SDS011;9102;53.548;9.926;2023-04-06T00:59:23;5.10;;;3.25;;
17953;SDS011;9102;53.548;9.926;2023-04-06T01:01:52;7.50;;;3.65;;
17953;SDS011;9102;53.548;9.926;2023-04-06T01:04:19;5.63;;;3.47;;
17953;SDS011;9102;53.548;9.926;2023-04-06T01:06:47;7.65;;;4.00;;
17953;SDS011;9102;53.548;9.926;2023-04-06T01:09:14;7.95;;;3.50;;
17953;SDS011;9102;53.548;9.926;2023-04-06T01:11:41;14.40;;;7.47;;
17953;SDS011;9102;53.548;9.926;2023-04-06T01:14:08;11.00;;;5.22;;
17953;SDS011;9102;53.548;9.926;2023-04-06T01:16:36;6.35;;;3.85;;
17953;SDS011;9102;53.548;9.926;2023-04-06T01:19:07;6.28;;;3.80;;
17953;SDS011;9102;53.548;9.926;2023-04-06T01:21:35;7.97;;;3.80;;
17953;SDS011;9102;53.548;9.926;2023-04-06T01:24:04;8.90;;;3.83;;
17953;SDS011;9102;53.548;9.926;2023-04-06T01:26:31;9.85;;;4.10;;
17953;SDS011;9102;53.548;9.926;2023-04-06T01:29:00;7.63;;;4.35;;
17953;SDS011;9102;53.548;9.926;2023-04-06T01:31:27;8.35;;;4.30;;
17953;SDS011;9102;53.548;9.926;2023-04-06T01:33:54;7.55;;;4.63;;
17953;SDS011;9102;53.548;9.926;2023-04-06T01:36:22;11.15;;;5.18;;
17953;SDS011;9102;53.548;9.926;2023-04-06T01:38:49;11.30;;;5.35;;
17953;SDS011;9102;53.548;9.926;2023-04-06T01:41:17;12.73;;;6.25;;
17953;SDS011;9102;53.548;9.926;2023-04-06T01:43:44;11.65;;;5.30;;
17953;SDS011;9102;53.548;9.926;2023-04-06T01:46:11;10.45;;;5.05;;
17953;SDS011;9102;53.548;9.926;2023-04-06T01:48:38;9.35;;;4.65;;
17953;SDS011;9102;53.548;9.926;2023-04-06T01:51:05;6.90;;;4.07;;
17953;SDS011;9102;53.548;9.926;2023-04-06T01:53:32;7.60;;;4.78;;
17953;SDS011;9102;53.548;9.926;2023-04-06T01:55:59;6.68;;;4.18;;
17953;SDS011;9102;53.548;9.926;2023-04-06T01:58:27;9.98;;;4.60;;
17953;SDS011;9102;53.548;9.926;2023-04-06T02:00:54;8.80;;;4.75;;
17953;SDS011;9102;53.548;9.926;2023-04-06T02:03:21;8.05;;;4.53;;
17953;SDS011;9102;53.548;9.926;2023-04-06T02:05:48;8.75;;;4.82;;
17953;SDS011;9102;53.548;9.926;2023-04-06T02:08:15;11.57;;;4.60;;
17953;SDS011;9102;53.548;9.926;2023-04-06T02:10:42;8.02;;;4.95;;
17953;SDS011;9102;53.548;9.926;2023-04-06T02:13:09;10.95;;;5.05;;
17953;SDS011;9102;53.548;9.926;2023-04-06T02:15:37;9.00;;;4.85;;
17953;SDS011;9102;53.548;9.926;2023-04-06T02:18:04;8.90;;;4.72;;
17953;SDS011;9102;53.548;9.926;2023-04-06T02:20:31;13.75;;;5.38;;
17953;SDS011;9102;53.548;9.926;2023-04-06T02:22:58;10.77;;;5.80;;
17953;SDS011;9102;53.548;9.926;2023-04-06T02:25:26;14.45;;;6.18;;
17953;SDS011;9102;53.548;9.926;2023-04-06T02:27:53;11.98;;;5.15;;
17953;SDS011;9102;53.548;9.926;2023-04-06T02:30:20;8.65;;;5.25;;
17953;SDS011;9102;53.548;9.926;2023-04-06T02:32:48;14.65;;;5.97;;
17953;SDS011;9102;53.548;9.926;2023-04-06T02:35:15;9.73;;;5.22;;
17953;SDS011;9102;53.548;9.926;2023-04-06T02:37:42;9.43;;;5.05;;
17953;SDS011;9102;53.548;9.926;2023-04-06T02:40:10;11.68;;;5.60;;
17953;SDS011;9102;53.548;9.926;2023-04-06T02:42:37;12.05;;;5.55;;
17953;SDS011;9102;53.548;9.926;2023-04-06T02:45:04;10.60;;;5.57;;
17953;SDS011;9102;53.548;9.926;2023-04-06T02:47:32;8.13;;;5.43;;
17953;SDS011;9102;53.548;9.926;2023-04-06T02:50:00;10.40;;;5.75;;
17953;SDS011;9102;53.548;9.926;2023-04-06T02:52:28;9.07;;;5.40;;
17953;SDS011;9102;53.548;9.926;2023-04-06T02:54:55;10.02;;;6.05;;
17953;SDS011;9102;53.548;9.926;2023-04-06T02:57:22;16.27;;;6.32;;
17953;SDS011;9102;53.548;9.926;2023-04-06T02:59:49;17.67;;;6.50;;
17953;SDS011;9102;53.548;9.926;2023-04-06T03:02:16;11.57;;;6.57;;
17953;SDS011;9102;53.548;9.926;2023-04-06T03:04:43;11.25;;;6.03;;
17953;SDS011;9102;53.548;9.926;2023-04-06T03:07:12;13.15;;;6.15;;
17953;SDS011;9102;53.548;9.926;2023-04-06T03:09:39;12.32;;;6.68;;
17953;SDS011;9102;53.548;9.926;2023-04-06T03:12:06;17.92;;;6.68;;
17953;SDS011;9102;53.548;9.926;2023-04-06T03:14:33;14.40;;;7.35;;
17953;SDS011;9102;53.548;9.926;2023-04-06T03:17:00;16.02;;;7.13;;
17953;SDS011;9102;53.548;9.926;2023-04-06T03:19:27;11.38;;;7.43;;
17953;SDS011;9102;53.548;9.926;2023-04-06T03:21:54;14.63;;;7.13;;
17953;SDS011;9102;53.548;9.926;2023-04-06T03:24:22;14.23;;;6.43;;
17953;SDS011;9102;53.548;9.926;2023-04-06T03:26:49;13.60;;;7.05;;
17953;SDS011;9102;53.548;9.926;2023-04-06T03:29:16;13.75;;;7.03;;
17953;SDS011;9102;53.548;9.926;2023-04-06T03:31:43;11.00;;;6.72;;
17953;SDS011;9102;53.548;9.926;2023-04-06T03:34:10;15.32;;;6.43;;
17953;SDS011;9102;53.548;9.926;2023-04-06T03:36:37;13.52;;;6.45;;
17953;SDS011;9102;53.548;9.926;2023-04-06T03:39:04;11.38;;;6.65;;
17953;SDS011;9102;53.548;9.926;2023-04-06T03:41:32;12.27;;;6.15;;
17953;SDS011;9102;53.548;9.926;2023-04-06T03:44:00;11.15;;;7.15;;
17953;SDS011;9102;53.548;9.926;2023-04-06T03:46:27;13.63;;;6.90;;
17953;SDS011;9102;53.548;9.926;2023-04-06T03:48:54;14.13;;;6.90;;
17953;SDS011;9102;53.548;9.926;2023-04-06T03:51:21;16.27;;;7.95;;
17953;SDS011;9102;53.548;9.926;2023-04-06T03:53:48;13.95;;;7.18;;
17953;SDS011;9102;53.548;9.926;2023-04-06T03:56:15;16.60;;;7.70;;
17953;SDS011;9102;53.548;9.926;2023-04-06T03:58:43;12.15;;;7.60;;
17953;SDS011;9102;53.548;9.926;2023-04-06T04:01:10;15.55;;;7.60;;
17953;SDS011;9102;53.548;9.926;2023-04-06T04:03:37;14.73;;;8.80;;
17953;SDS011;9102;53.548;9.926;2023-04-06T04:06:04;15.13;;;7.68;;
17953;SDS011;9102;53.548;9.926;2023-04-06T04:08:31;15.00;;;7.00;;
17953;SDS011;9102;53.548;9.926;2023-04-06T04:10:58;12.98;;;7.63;;
17953;SDS011;9102;53.548;9.926;2023-04-06T04:13:25;14.90;;;7.72;;
17953;SDS011;9102;53.548;9.926;2023-04-06T04:15:54;11.85;;;7.15;;
17953;SDS011;9102;53.548;9.926;2023-04-06T04:18:21;16.23;;;7.70;;
17953;SDS011;9102;53.548;9.926;2023-04-06T04:20:48;13.50;;;7.50;;
17953;SDS011;9102;53.548;9.926;2023-04-06T04:23:15;14.45;;;7.45;;
17953;SDS011;9102;53.548;9.926;2023-04-06T04:25:43;17.02;;;7.60;;
17953;SDS011;9102;53.548;9.926;2023-04-06T04:28:10;14.43;;;7.90;;
17953;SDS011;9102;53.548;9.926;2023-04-06T04:30:37;17.63;;;7.50;;
17953;SDS011;9102;53.548;9.926;2023-04-06T04:33:05;13.05;;;7.70;;
17953;SDS011;9102;53.548;9.926;2023-04-06T04:35:32;11.80;;;7.65;;
17953;SDS011;9102;53.548;9.926;2023-04-06T04:37:59;17.60;;;8.80;;
17953;SDS011;9102;53.548;9.926;2023-04-06T04:40:26;10.80;;;6.82;;
17953;SDS011;9102;53.548;9.926;2023-04-06T04:42:53;11.52;;;7.60;;
17953;SDS011;9102;53.548;9.926;2023-04-06T04:45:20;15.52;;;8.43;;
17953;SDS011;9102;53.548;9.926;2023-04-06T04:47:46;18.02;;;8.65;;
17953;SDS011;9102;53.548;9.926;2023-04-06T04:50:15;12.45;;;7.82;;
17953;SDS011;9102;53.548;9.926;2023-04-06T04:52:42;13.73;;;7.72;;
17953;SDS011;9102;53.548;9.926;2023-04-06T04:55:09;17.80;;;7.93;;
17953;SDS011;9102;53.548;9.926;2023-04-06T04:57:36;14.70;;;9.05;;
17953;SDS011;9102;53.548;9.926;2023-04-06T05:00:03;16.33;;;8.30;;
17953;SDS011;9102;53.548;9.926;2023-04-06T05:02:30;18.00;;;8.85;;
17953;SDS011;9102;53.548;9.926;2023-04-06T05:04:57;19.60;;;9.00;;
17953;SDS011;9102;53.548;9.926;2023-04-06T05:07:26;17.45;;;8.57;;
17953;SDS011;9102;53.548;9.926;2023-04-06T05:09:53;18.27;;;9.27;;
17953;SDS011;9102;53.548;9.926;2023-04-06T05:12:19;17.67;;;9.00;;
17953;SDS011;9102;53.548;9.926;2023-04-06T05:14:47;14.40;;;9.18;;
17953;SDS011;9102;53.548;9.926;2023-04-06T05:17:14;17.77;;;9.25;;
17953;SDS011;9102;53.548;9.926;2023-04-06T05:19:41;17.35;;;9.23;;
17953;SDS011;9102;53.548;9.926;2023-04-06T05:22:08;21.75;;;8.57;;
17953;SDS011;9102;53.548;9.926;2023-04-06T05:24:36;15.15;;;8.10;;
17953;SDS011;9102;53.548;9.926;2023-04-06T05:27:05;16.98;;;9.32;;
17953;SDS011;9102;53.548;9.926;2023-04-06T05:29:32;18.83;;;9.70;;
17953;SDS011;9102;53.548;9.926;2023-04-06T05:32:00;19.30;;;9.40;;
17953;SDS011;9102;53.548;9.926;2023-04-06T05:34:27;19.33;;;8.75;;
17953;SDS011;9102;53.548;9.926;2023-04-06T05:36:54;18.17;;;9.23;;
17953;SDS011;9102;53.548;9.926;2023-04-06T05:39:21;17.88;;;8.55;;
17953;SDS011;9102;53.548;9.926;2023-04-06T05:41:50;17.95;;;8.68;;
17953;SDS011;9102;53.548;9.926;2023-04-06T05:44:17;15.80;;;9.05;;
17953;SDS011;9102;53.548;9.926;2023-04-06T05:46:43;22.45;;;9.63;;
17953;SDS011;9102;53.548;9.926;2023-04-06T05:49:10;12.98;;;8.25;;
17953;SDS011;9102;53.548;9.926;2023-04-06T05:51:37;20.17;;;8.68;;
17953;SDS011;9102;53.548;9.926;2023-04-06T05:54:04;20.88;;;9.13;;
17953;SDS011;9102;53.548;9.926;2023-04-06T05:56:31;23.92;;;10.40;;
17953;SDS011;9102;53.548;9.926;2023-04-06T05:58:59;21.10;;;10.13;;
17953;SDS011;9102;53.548;9.926;2023-04-06T06:01:26;22.20;;;9.57;;
17953;SDS011;9102;53.548;9.926;2023-04-06T06:03:54;24.02;;;9.00;;
17953;SDS011;9102;53.548;9.926;2023-04-06T06:06:21;24.77;;;9.23;;
17953;SDS011;9102;53.548;9.926;2023-04-06T06:08:48;21.10;;;10.13;;
17953;SDS011;9102;53.548;9.926;2023-04-06T06:11:14;17.05;;;9.48;;
17953;SDS011;9102;53.548;9.926;2023-04-06T06:13:41;18.45;;;9.40;;
17953;SDS011;9102;53.548;9.926;2023-04-06T06:16:10;20.50;;;9.85;;
17953;SDS011;9102;53.548;9.926;2023-04-06T06:18:36;23.70;;;9.82;;
17953;SDS011;9102;53.548;9.926;2023-04-06T06:21:03;18.58;;;9.52;;
17953;SDS011;9102;53.548;9.926;2023-04-06T06:23:30;22.02;;;10.18;;
17953;SDS011;9102;53.548;9.926;2023-04-06T06:25:57;23.88;;;10.32;;
17953;SDS011;9102;53.548;9.926;2023-04-06T06:28:25;28.23;;;9.38;;
17953;SDS011;9102;53.548;9.926;2023-04-06T06:30:52;21.77;;;9.60;;
17953;SDS011;9102;53.548;9.926;2023-04-06T06:33:21;21.85;;;9.48;;
17953;SDS011;9102;53.548;9.926;2023-04-06T06:35:51;32.08;;;10.90;;
17953;SDS011;9102;53.548;9.926;2023-04-06T06:38:18;20.92;;;9.77;;
17953;SDS011;9102;53.548;9.926;2023-04-06T06:40:45;25.55;;;9.65;;
17953;SDS011;9102;53.548;9.926;2023-04-06T06:43:12;28.73;;;10.63;;
17953;SDS011;9102;53.548;9.926;2023-04-06T06:45:39;23.70;;;10.60;;
17953;SDS011;9102;53.548;9.926;2023-04-06T06:48:06;22.42;;;9.65;;
17953;SDS011;9102;53.548;9.926;2023-04-06T06:50:35;21.30;;;9.35;;
17953;SDS011;9102;53.548;9.926;2023-04-06T06:53:01;19.13;;;9.10;;
17953;SDS011;9102;53.548;9.926;2023-04-06T06:55:28;17.48;;;8.70;;
17953;SDS011;9102;53.548;9.926;2023-04-06T06:57:55;12.40;;;7.30;;
17953;SDS011;9102;53.548;9.926;2023-04-06T07:00:22;13.30;;;7.25;;
17953;SDS011;9102;53.548;9.926;2023-04-06T07:02:49;14.45;;;7.43;;
17953;SDS011;9102;53.548;9.926;2023-04-06T07:05:16;14.52;;;7.30;;
17953;SDS011;9102;53.548;9.926;2023-04-06T07:07:45;11.77;;;6.75;;
17953;SDS011;9102;53.548;9.926;2023-04-06T07:10:11;14.18;;;6.78;;
17953;SDS011;9102;53.548;9.926;2023-04-06T07:12:38;12.38;;;7.07;;
17953;SDS011;9102;53.548;9.926;2023-04-06T07:15:06;15.90;;;7.60;;
17953;SDS011;9102;53.548;9.926;2023-04-06T07:17:33;13.43;;;7.50;;
17953;SDS011;9102;53.548;9.926;2023-04-06T07:20:00;17.27;;;7.90;;
17953;SDS011;9102;53.548;9.926;2023-04-06T07:22:27;12.93;;;7.10;;
17953;SDS011;9102;53.548;9.926;2023-04-06T07:24:57;13.10;;;7.30;;
17953;SDS011;9102;53.548;9.926;2023-04-06T07:27:24;15.55;;;7.38;;
17953;SDS011;9102;53.548;9.926;2023-04-06T07:29:50;23.88;;;8.93;;
17953;SDS011;9102;53.548;9.926;2023-04-06T07:32:17;10.57;;;6.47;;
17953;SDS011;9102;53.548;9.926;2023-04-06T07:34:44;12.82;;;6.72;;
17953;SDS011;9102;53.548;9.926;2023-04-06T07:37:12;13.60;;;7.38;;
17953;SDS011;9102;53.548;9.926;2023-04-06T07:39:38;11.45;;;6.88;;
17953;SDS011;9102;53.548;9.926;2023-04-06T07:42:07;12.93;;;6.70;;
17953;SDS011;9102;53.548;9.926;2023-04-06T07:44:34;9.73;;;6.22;;
17953;SDS011;9102;53.548;9.926;2023-04-06T07:47:00;11.80;;;6.63;;
17953;SDS011;9102;53.548;9.926;2023-04-06T07:49:27;10.63;;;6.15;;
17953;SDS011;9102;53.548;9.926;2023-04-06T07:51:55;12.93;;;6.30;;
17953;SDS011;9102;53.548;9.926;2023-04-06T07:54:22;9.82;;;5.72;;
17953;SDS011;9102;53.548;9.926;2023-04-06T07:56:49;14.80;;;5.80;;
17953;SDS011;9102;53.548;9.926;2023-04-06T07:59:17;12.90;;;5.78;;
17953;SDS011;9102;53.548;9.926;2023-04-06T08:01:45;13.38;;;5.57;;
17953;SDS011;9102;53.548;9.926;2023-04-06T08:04:12;11.50;;;5.82;;
17953;SDS011;9102;53.548;9.926;2023-04-06T08:06:38;13.35;;;5.60;;
17953;SDS011;9102;53.548;9.926;2023-04-06T08:09:06;10.43;;;5.57;;
17953;SDS011;9102;53.548;9.926;2023-04-06T08:11:33;14.05;;;6.10;;
17953;SDS011;9102;53.548;9.926;2023-04-06T08:14:00;11.23;;;5.45;;
17953;SDS011;9102;53.548;9.926;2023-04-06T08:16:28;9.75;;;5.25;;
17953;SDS011;9102;53.548;9.926;2023-04-06T08:18:55;8.50;;;5.78;;
17953;SDS011;9102;53.548;9.926;2023-04-06T08:21:22;11.43;;;6.43;;
17953;SDS011;9102;53.548;9.926;2023-04-06T08:23:49;9.75;;;5.32;;
17953;SDS011;9102;53.548;9.926;2023-04-06T08:26:16;11.95;;;6.93;;
17953;SDS011;9102;53.548;9.926;2023-04-06T08:28:43;17.05;;;5.93;;
17953;SDS011;9102;53.548;9.926;2023-04-06T08:31:10;11.75;;;6.22;;
17953;SDS011;9102;53.548;9.926;2023-04-06T08:33:38;12.75;;;5.45;;
17953;SDS011;9102;53.548;9.926;2023-04-06T08:36:09;15.63;;;6.53;;
17953;SDS011;9102;53.548;9.926;2023-04-06T08:38:37;11.93;;;6.07;;
17953;SDS011;9102;53.548;9.926;2023-04-06T08:41:08;13.20;;;6.25;;
17953;SDS011;9102;53.548;9.926;2023-04-06T08:43:36;10.38;;;5.43;;
17953;SDS011;9102;53.548;9.926;2023-04-06T08:46:08;16.70;;;6.35;;
17953;SDS011;9102;53.548;9.926;2023-04-06T08:48:40;11.75;;;6.50;;
17953;SDS011;9102;53.548;9.926;2023-04-06T08:51:08;10.00;;;5.93;;
17953;SDS011;9102;53.548;9.926;2023-04-06T08:53:35;10.20;;;5.70;;
17953;SDS011;9102;53.548;9.926;2023-04-06T08:56:03;10.35;;;5.88;;
17953;SDS011;9102;53.548;9.926;2023-04-06T08:58:33;10.73;;;5.47;;
17953;SDS011;9102;53.548;9.926;2023-04-06T09:01:02;11.23;;;5.70;;
17953;SDS011;9102;53.548;9.926;2023-04-06T09:03:33;11.93;;;5.72;;
17953;SDS011;9102;53.548;9.926;2023-04-06T09:06:05;14.63;;;5.97;;
17953;SDS011;9102;53.548;9.926;2023-04-06T09:08:33;10.85;;;5.05;;
17953;SDS011;9102;53.548;9.926;2023-04-06T09:11:00;12.15;;;4.60;;
17953;SDS011;9102;53.548;9.926;2023-04-06T09:13:27;10.73;;;4.82;;
17953;SDS011;9102;53.548;9.926;2023-04-06T09:15:58;12.98;;;5.18;;
17953;SDS011;9102;53.548;9.926;2023-04-06T09:18:29;13.00;;;4.85;;
17953;SDS011;9102;53.548;9.926;2023-04-06T09:20:58;8.82;;;4.30;;
17953;SDS011;9102;53.548;9.926;2023-04-06T09:23:29;11.55;;;5.00;;
17953;SDS011;9102;53.548;9.926;2023-04-06T09:26:06;11.93;;;4.50;;
17953;SDS011;9102;53.548;9.926;2023-04-06T09:28:41;9.52;;;4.28;;
17953;SDS011;9102;53.548;9.926;2023-04-06T09:31:09;9.32;;;4.20;;
17953;SDS011;9102;53.548;9.926;2023-04-06T09:33:37;7.13;;;4.65;;
17953;SDS011;9102;53.548;9.926;2023-04-06T09:36:05;12.90;;;4.35;;
17953;SDS011;9102;53.548;9.926;2023-04-06T09:38:34;9.05;;;4.38;;
17953;SDS011;9102;53.548;9.926;2023-04-06T09:41:02;12.85;;;4.60;;
17953;SDS011;9102;53.548;9.926;2023-04-06T09:43:30;6.22;;;3.72;;
17953;SDS011;9102;53.548;9.926;2023-04-06T09:45:57;10.70;;;4.43;;
17953;SDS011;9102;53.548;9.926;2023-04-06T09:48:27;10.38;;;4.22;;
17953;SDS011;9102;53.548;9.926;2023-04-06T09:50:57;10.82;;;4.18;;
17953;SDS011;9102;53.548;9.926;2023-04-06T09:53:26;9.40;;;4.38;;
17953;SDS011;9102;53.548;9.926;2023-04-06T09:55:59;7.10;;;4.13;;
17953;SDS011;9102;53.548;9.926;2023-04-06T09:58:35;7.80;;;3.80;;
17953;SDS011;9102;53.548;9.926;2023-04-06T10:01:08;8.18;;;4.32;;
17953;SDS011;9102;53.548;9.926;2023-04-06T10:03:40;9.23;;;4.38;;
17953;SDS011;9102;53.548;9.926;2023-04-06T10:06:14;5.32;;;3.63;;
17953;SDS011;9102;53.548;9.926;2023-04-06T10:08:45;7.43;;;4.00;;
17953;SDS011;9102;53.548;9.926;2023-04-06T10:11:17;7.40;;;4.00;;
17953;SDS011;9102;53.548;9.926;2023-04-06T10:13:44;5.47;;;3.35;;
17953;SDS011;9102;53.548;9.926;2023-04-06T10:16:14;6.78;;;3.88;;
17953;SDS011;9102;53.548;9.926;2023-04-06T10:18:41;8.57;;;3.92;;
17953;SDS011;9102;53.548;9.926;2023-04-06T10:21:14;10.60;;;3.88;;
17953;SDS011;9102;53.548;9.926;2023-04-06T10:23:46;7.15;;;3.92;;
17953;SDS011;9102;53.548;9.926;2023-04-06T10:26:17;5.93;;;3.53;;
17953;SDS011;9102;53.548;9.926;2023-04-06T10:28:46;7.72;;;3.75;;
17953;SDS011;9102;53.548;9.926;2023-04-06T10:31:14;10.55;;;4.28;;
17953;SDS011;9102;53.548;9.926;2023-04-06T10:33:53;9.18;;;3.90;;
17953;SDS011;9102;53.548;9.926;2023-04-06T10:36:21;6.88;;;3.55;;
17953;SDS011;9102;53.548;9.926;2023-04-06T10:38:55;6.22;;;3.80;;
17953;SDS011;9102;53.548;9.926;2023-04-06T10:41:25;8.38;;;3.70;;
17953;SDS011;9102;53.548;9.926;2023-04-06T10:43:59;7.05;;;4.53;;
17953;SDS011;9102;53.548;9.926;2023-04-06T10:46:27;7.53;;;3.95;;
17953;SDS011;9102;53.548;9.926;2023-04-06T10:48:55;7.70;;;3.85;;
17953;SDS011;9102;53.548;9.926;2023-04-06T10:51:37;8.35;;;4.50;;
17953;SDS011;9102;53.548;9.926;2023-04-06T10:54:04;7.38;;;3.97;;
17953;SDS011;9102;53.548;9.926;2023-04-06T10:56:36;7.07;;;4.20;;
17953;SDS011;9102;53.548;9.926;2023-04-06T10:59:03;9.60;;;4.57;;
17953;SDS011;9102;53.548;9.926;2023-04-06T11:01:33;10.80;;;4.57;;
17953;SDS011;9102;53.548;9.926;2023-04-06T11:04:00;6.88;;;4.53;;
17953;SDS011;9102;53.548;9.926;2023-04-06T11:06:28;11.10;;;4.82;;
17953;SDS011;9102;53.548;9.926;2023-04-06T11:08:58;7.65;;;4.80;;
17953;SDS011;9102;53.548;9.926;2023-04-06T11:11:25;8.30;;;4.50;;
17953;SDS011;9102;53.548;9.926;2023-04-06T11:13:54;9.13;;;5.35;;
17953;SDS011;9102;53.548;9.926;2023-04-06T11:16:22;18.67;;;4.95;;
17953;SDS011;9102;53.548;9.926;2023-04-06T11:18:52;9.23;;;5.20;;
17953;SDS011;9102;53.548;9.926;2023-04-06T11:21:30;9.88;;;5.10;;
17953;SDS011;9102;53.548;9.926;2023-04-06T11:24:08;7.65;;;4.80;;
17953;SDS011;9102;53.548;9.926;2023-04-06T11:26:36;11.13;;;4.95;;
17953;SDS011;9102;53.548;9.926;2023-04-06T11:29:06;7.97;;;5.07;;
17953;SDS011;9102;53.548;9.926;2023-04-06T11:31:37;11.48;;;5.43;;
17953;SDS011;9102;53.548;9.926;2023-04-06T11:34:08;11.33;;;5.63;;
17953;SDS011;9102;53.548;9.926;2023-04-06T11:36:36;9.77;;;5.28;;
17953;SDS011;9102;53.548;9.926;2023-04-06T11:39:07;10.38;;;5.60;;
17953;SDS011;9102;53.548;9.926;2023-04-06T11:41:35;9.85;;;6.00;;
17953;SDS011;9102;53.548;9.926;2023-04-06T11:44:02;11.15;;;5.20;;
17953;SDS011;9102;53.548;9.926;2023-04-06T11:46:31;8.63;;;5.75;;
17953;SDS011;9102;53.548;9.926;2023-04-06T11:48:58;11.43;;;6.10;;
17953;SDS011;9102;53.548;9.926;2023-04-06T11:51:25;9.10;;;5.65;;
17953;SDS011;9102;53.548;9.926;2023-04-06T11:53:52;11.48;;;5.85;;
17953;SDS011;9102;53.548;9.926;2023-04-06T11:56:23;13.98;;;6.22;;
17953;SDS011;9102;53.548;9.926;2023-04-06T11:58:54;13.88;;;5.57;;
17953;SDS011;9102;53.548;9.926;2023-04-06T12:01:21;12.32;;;6.15;;
17953;SDS011;9102;53.548;9.926;2023-04-06T12:03:50;13.23;;;5.25;;
17953;SDS011;9102;53.548;9.926;2023-04-06T12:06:18;8.00;;;5.80;;
17953;SDS011;9102;53.548;9.926;2023-04-06T12:08:45;9.60;;;5.82;;
17953;SDS011;9102;53.548;9.926;2023-04-06T12:11:12;9.45;;;5.88;;
17953;SDS011;9102;53.548;9.926;2023-04-06T12:13:39;8.68;;;5.63;;
17953;SDS011;9102;53.548;9.926;2023-04-06T12:16:06;15.48;;;5.80;;
17953;SDS011;9102;53.548;9.926;2023-04-06T12:18:33;18.20;;;5.97;;
17953;SDS011;9102;53.548;9.926;2023-04-06T12:21:02;10.02;;;5.90;;
17953;SDS011;9102;53.548;9.926;2023-04-06T12:23:30;15.70;;;7.68;;
17953;SDS011;9102;53.548;9.926;2023-04-06T12:25:57;11.05;;;6.72;;
17953;SDS011;9102;53.548;9.926;2023-04-06T12:28:24;8.80;;;5.65;;
17953;SDS011;9102;53.548;9.926;2023-04-06T12:30:52;11.55;;;6.05;;
17953;SDS011;9102;53.548;9.926;2023-04-06T12:33:19;11.05;;;6.63;;
17953;SDS011;9102;53.548;9.926;2023-04-06T12:35:47;11.20;;;5.75;;
17953;SDS011;9102;53.548;9.926;2023-04-06T12:38:15;9.57;;;5.97;;
17953;SDS011;9102;53.548;9.926;2023-04-06T12:40:42;10.38;;;6.07;;
17953;SDS011;9102;53.548;9.926;2023-04-06T12:43:10;9.93;;;6.13;;
17953;SDS011;9102;53.548;9.926;2023-04-06T12:45:38;9.68;;;6.07;;
17953;SDS011;9102;53.548;9.926;2023-04-06T12:48:05;13.13;;;6.40;;
17953;SDS011;9102;53.548;9.926;2023-04-06T12:50:33;10.20;;;6.53;;
17953;SDS011;9102;53.548;9.926;2023-04-06T12:52:59;12.85;;;6.78;;
17953;SDS011;9102;53.548;9.926;2023-04-06T12:55:30;11.20;;;6.15;;
17953;SDS011;9102;53.548;9.926;2023-04-06T12:57:59;13.15;;;7.28;;
17953;SDS011;9102;53.548;9.926;2023-04-06T13:00:26;9.52;;;6.38;;
17953;SDS011;9102;53.548;9.926;2023-04-06T13:02:53;10.77;;;6.40;;
17953;SDS011;9102;53.548;9.926;2023-04-06T13:05:21;12.93;;;7.20;;
17953;SDS011;9102;53.548;9.926;2023-04-06T13:07:48;12.70;;;6.82;;
17953;SDS011;9102;53.548;9.926;2023-04-06T13:10:15;12.02;;;7.03;;
17953;SDS011;9102;53.548;9.926;2023-04-06T13:12:43;12.13;;;6.20;;
17953;SDS011;9102;53.548;9.926;2023-04-06T13:15:10;12.57;;;6.47;;
17953;SDS011;9102;53.548;9.926;2023-04-06T13:17:37;11.45;;;6.38;;
17953;SDS011;9102;53.548;9.926;2023-04-06T13:20:05;11.25;;;6.88;;
17953;SDS011;9102;53.548;9.926;2023-04-06T13:22:33;10.43;;;5.70;;
17953;SDS011;9102;53.548;9.926;2023-04-06T13:24:59;10.70;;;6.65;;
17953;SDS011;9102;53.548;9.926;2023-04-06T13:27:26;12.23;;;8.43;;
17953;SDS011;9102;53.548;9.926;2023-04-06T13:29:55;12.63;;;6.43;;
17953;SDS011;9102;53.548;9.926;2023-04-06T13:32:22;11.52;;;6.10;;
17953;SDS011;9102;53.548;9.926;2023-04-06T13:34:50;11.13;;;6.30;;
17953;SDS011;9102;53.548;9.926;2023-04-06T13:37:20;10.02;;;5.38;;
17953;SDS011;9102;53.548;9.926;2023-04-06T13:39:47;12.18;;;5.47;;
17953;SDS011;9102;53.548;9.926;2023-04-06T13:42:14;10.45;;;5.68;;
17953;SDS011;9102;53.548;9.926;2023-04-06T13:44:41;11.85;;;5.75;;
17953;SDS011;9102;53.548;9.926;2023-04-06T13:47:09;10.65;;;5.63;;
17953;SDS011;9102;53.548;9.926;2023-04-06T13:49:37;8.18;;;4.97;;
17953;SDS011;9102;53.548;9.926;2023-04-06T13:52:04;7.50;;;5.03;;
17953;SDS011;9102;53.548;9.926;2023-04-06T13:54:31;7.20;;;4.80;;
17953;SDS011;9102;53.548;9.926;2023-04-06T13:56:58;9.15;;;5.30;;
17953;SDS011;9102;53.548;9.926;2023-04-06T13:59:29;7.07;;;5.05;;
17953;SDS011;9102;53.548;9.926;2023-04-06T14:01:58;7.68;;;5.18;;
17953;SDS011;9102;53.548;9.926;2023-04-06T14:04:26;8.00;;;5.22;;
17953;SDS011;9102;53.548;9.926;2023-04-06T14:06:53;8.95;;;5.00;;
17953;SDS011;9102;53.548;9.926;2023-04-06T14:09:20;9.88;;;5.32;;
17953;SDS011;9102;53.548;9.926;2023-04-06T14:11:47;7.80;;;5.13;;
17953;SDS011;9102;53.548;9.926;2023-04-06T14:14:13;9.63;;;5.25;;
17953;SDS011;9102;53.548;9.926;2023-04-06T14:16:40;10.55;;;5.25;;
17953;SDS011;9102;53.548;9.926;2023-04-06T14:19:08;9.30;;;5.22;;
17953;SDS011;9102;53.548;9.926;2023-04-06T14:21:37;8.20;;;5.30;;
17953;SDS011;9102;53.548;9.926;2023-04-06T14:24:05;7.45;;;4.60;;
17953;SDS011;9102;53.548;9.926;2023-04-06T14:26:32;7.82;;;5.20;;
17953;SDS011;9102;53.548;9.926;2023-04-06T14:28:59;10.45;;;5.47;;
17953;SDS011;9102;53.548;9.926;2023-04-06T14:31:27;10.52;;;5.55;;
17953;SDS011;9102;53.548;9.926;2023-04-06T14:33:54;13.57;;;5.85;;
17953;SDS011;9102;53.548;9.926;2023-04-06T14:36:21;10.80;;;5.65;;
17953;SDS011;9102;53.548;9.926;2023-04-06T14:38:50;10.02;;;6.05;;
17953;SDS011;9102;53.548;9.926;2023-04-06T14:41:17;12.45;;;6.65;;
17953;SDS011;9102;53.548;9.926;2023-04-06T14:43:45;11.63;;;7.25;;
17953;SDS011;9102;53.548;9.926;2023-04-06T14:46:12;12.98;;;6.88;;
17953;SDS011;9102;53.548;9.926;2023-04-06T14:48:40;10.90;;;6.38;;
17953;SDS011;9102;53.548;9.926;2023-04-06T14:51:07;10.80;;;5.97;;
17953;SDS011;9102;53.548;9.926;2023-04-06T14:53:34;9.15;;;5.55;;
17953;SDS011;9102;53.548;9.926;2023-04-06T14:56:02;8.82;;;5.75;;